createdAt,value
2022-11-05T00:00:39.238Z,14.75
2022-11-05T00:03:07.774Z,14.73
2022-11-05T00:05:35.817Z,14.7
2022-11-05T00:08:04.004Z,14.67
2022-11-05T00:13:09.019Z,14.65
2022-11-05T00:24:07.772Z,14.71
2022-11-05T00:29:04.270Z,14.78
2022-11-05T00:35:23.150Z,14.83
2022-11-05T00:37:51.396Z,14.85
2022-11-05T00:41:33.832Z,14.9
2022-11-05T00:45:16.194Z,14.93
2022-11-05T00:47:44.446Z,14.93
2022-11-05T00:51:26.862Z,14.92
2022-11-05T00:55:09.299Z,14.7
2022-11-05T00:57:37.539Z,14.91
2022-11-05T01:00:14.037Z,14.79
2022-11-05T01:05:10.536Z,14.83
2022-11-05T01:15:03.556Z,14.79
2022-11-05T01:26:18.997Z,14.74
2022-11-05T01:28:47.319Z,14.75
2022-11-05T01:31:15.516Z,14.76
2022-11-05T01:33:43.816Z,14.75
2022-11-05T01:36:12.072Z,14.72
2022-11-05T01:38:40.316Z,14.68
2022-11-05T01:41:08.591Z,14.63
2022-11-05T01:43:36.852Z,14.57
2022-11-05T01:46:05.135Z,14.52
2022-11-05T01:51:09.824Z,14.49
2022-11-05T01:56:06.395Z,14.46
2022-11-05T02:01:02.949Z,14.5
2022-11-05T02:06:07.682Z,14.52
2022-11-05T02:08:35.895Z,14.54
2022-11-05T02:11:04.160Z,14.53
2022-11-05T02:13:32.478Z,14.53
2022-11-05T02:17:14.863Z,14.49
2022-11-05T02:22:11.375Z,14.38
2022-11-05T02:26:51.542Z,14.26
2022-11-05T02:30:33.945Z,14.18
2022-11-05T02:33:10.640Z,14.2
2022-11-05T02:38:06.921Z,14.16
2022-11-05T02:43:03.494Z,14.1
2022-11-05T02:48:08.221Z,14.21
2022-11-05T02:53:04.699Z,14.12
2022-11-05T03:04:20.146Z,14
2022-11-05T03:06:48.391Z,13.97
2022-11-05T03:10:30.827Z,13.97
2022-11-05T03:14:13.195Z,14.02
2022-11-05T03:16:41.447Z,14.04
2022-11-05T03:20:23.840Z,14.05
2022-11-05T03:24:06.224Z,14.05
2022-11-05T03:26:34.504Z,14.03
2022-11-05T03:34:07.507Z,14.09
2022-11-05T03:45:14.726Z,14.25
2022-11-05T03:50:11.213Z,14.03
2022-11-05T03:54:01.832Z,13.93
2022-11-05T03:56:30.112Z,13.86
2022-11-05T04:00:12.470Z,13.8
2022-11-05T04:03:54.892Z,13.73
2022-11-05T04:07:20.920Z,13.63
2022-11-05T04:09:49.184Z,13.6
2022-11-05T04:12:17.437Z,13.62
2022-11-05T04:14:45.687Z,13.61
2022-11-05T04:17:22.156Z,13.65
2022-11-05T04:21:04.595Z,13.68
2022-11-05T04:27:15.249Z,13.59
2022-11-05T04:32:11.824Z,13.61
2022-11-05T04:34:48.231Z,13.59
2022-11-05T04:37:16.530Z,13.51
2022-11-05T04:39:44.766Z,13.49
2022-11-05T04:42:13.030Z,13.46
2022-11-05T04:44:41.305Z,13.52
2022-11-05T04:47:09.536Z,13.28
2022-11-05T04:49:37.824Z,13.56
2022-11-05T04:52:06.076Z,13.58
2022-11-05T04:54:34.341Z,13.69
2022-11-05T04:57:02.611Z,13.75
2022-11-05T05:02:07.434Z,13.92
2022-11-05T05:07:03.909Z,13.83
2022-11-05T05:14:36.867Z,13.73
2022-11-05T05:18:19.271Z,13.84
2022-11-05T05:22:01.670Z,13.84
2022-11-05T05:25:44.053Z,14.01
2022-11-05T05:29:26.505Z,13.98
2022-11-05T05:33:08.992Z,13.91
2022-11-05T05:36:51.271Z,13.91
2022-11-05T05:40:33.666Z,13.89
2022-11-05T05:44:16.115Z,13.83
2022-11-05T05:47:58.498Z,13.83
2022-11-05T05:54:17.324Z,13.63
2022-11-05T05:56:45.614Z,13.63
2022-11-05T05:59:13.931Z,13.6
2022-11-05T06:01:42.288Z,13.55
2022-11-05T06:05:08.174Z,13.48
2022-11-05T06:08:50.519Z,13.4
2022-11-05T06:12:32.987Z,13.29
2022-11-05T06:16:23.548Z,13.23
2022-11-05T06:20:05.922Z,13.19
2022-11-05T06:25:02.469Z,13.34
2022-11-05T06:31:13.162Z,13.31
2022-11-05T06:36:09.641Z,12.86
2022-11-05T06:42:28.527Z,13.31
2022-11-05T06:44:56.808Z,13.42
2022-11-05T06:48:39.166Z,13.48
2022-11-05T06:52:21.587Z,13.48
2022-11-05T06:54:49.853Z,13.44
2022-11-05T06:57:18.131Z,13.3
2022-11-05T06:59:46.378Z,13.26
2022-11-05T07:02:14.675Z,13.19
2022-11-05T07:12:07.731Z,13.01
2022-11-05T07:17:04.236Z,13.03
2022-11-05T07:25:51.380Z,13.03
2022-11-05T07:28:19.621Z,13.01
2022-11-05T07:32:02.066Z,13.12
2022-11-05T07:34:30.281Z,13.2
2022-11-05T07:38:12.720Z,13.14
2022-11-05T07:41:55.126Z,13.13
2022-11-05T07:44:23.389Z,13.15
2022-11-05T07:48:05.797Z,13.18
2022-11-05T07:53:10.708Z,13.27
2022-11-05T07:58:07.090Z,13.45
2022-11-05T08:03:12.170Z,13.21
2022-11-05T08:05:40.039Z,13.2
2022-11-05T08:08:00.126Z,13.28
2022-11-05T08:14:10.740Z,13.21
2022-11-05T08:19:15.510Z,13.17
2022-11-05T08:24:12.036Z,13.22
2022-11-05T08:29:08.534Z,13.22
2022-11-05T08:34:05.060Z,13.31
2022-11-05T08:40:15.905Z,13.27
2022-11-05T08:45:20.487Z,13.49
2022-11-05T08:49:11.068Z,13.48
2022-11-05T08:54:07.579Z,13.61
2022-11-05T09:02:54.750Z,13.85
2022-11-05T09:06:37.131Z,13.89
2022-11-05T09:09:05.363Z,13.84
2022-11-05T09:11:57.350Z,13.77
2022-11-05T09:14:01.949Z,13.64
2022-11-05T09:17:44.362Z,13.46
2022-11-05T09:20:12.669Z,13.54
2022-11-05T09:22:49.081Z,13.55
2022-11-05T09:25:17.311Z,13.58
2022-11-05T09:27:45.864Z,13.62
2022-11-05T09:30:13.980Z,13.75
2022-11-05T09:32:42.110Z,13.76
2022-11-05T09:35:10.372Z,13.81
2022-11-05T09:37:38.633Z,13.83
2022-11-05T09:40:06.917Z,13.91
2022-11-05T09:42:35.150Z,13.93
2022-11-05T09:45:03.456Z,13.95
2022-11-05T09:50:08.252Z,14.08
2022-11-05T09:55:04.730Z,14.01
2022-11-05T10:01:15.650Z,14.15
2022-11-05T10:05:09.592Z,14.16
2022-11-05T10:08:48.338Z,14.22
2022-11-05T10:12:30.855Z,14.26
2022-11-05T10:17:27.295Z,14.38
2022-11-05T10:19:55.705Z,14.43
2022-11-05T10:23:37.979Z,14.53
2022-11-05T10:27:20.361Z,14.56
2022-11-05T10:31:02.775Z,14.52
2022-11-05T10:34:45.201Z,14.52
2022-11-05T10:38:27.586Z,14.58
2022-11-05T10:42:18.257Z,14.67
2022-11-05T10:44:54.701Z,14.71
2022-11-05T10:47:22.918Z,14.84
2022-11-05T10:49:51.221Z,14.95
2022-11-05T10:52:19.434Z,15.11
2022-11-05T10:54:47.702Z,15.21
2022-11-05T10:57:15.930Z,15.33
2022-11-05T10:59:44.361Z,15.38
2022-11-05T11:03:10.447Z,15.47
2022-11-05T11:06:52.724Z,15.55
2022-11-05T11:13:11.639Z,15.89
2022-11-05T11:18:08.008Z,16.04
2022-11-05T11:23:04.554Z,16.06
2022-11-05T11:29:15.325Z,16
2022-11-05T11:33:06.086Z,15.98
2022-11-05T11:36:48.351Z,15.91
2022-11-05T11:39:16.512Z,15.89
2022-11-05T11:41:44.855Z,15.87
2022-11-05T11:44:13.000Z,15.85
2022-11-05T11:46:41.297Z,15.82
2022-11-05T11:49:09.583Z,15.58
2022-11-05T11:51:37.846Z,15.7
2022-11-05T11:54:06.103Z,15.66
2022-11-05T11:59:10.798Z,15.54
2022-11-05T12:09:12.067Z,15.58
2022-11-05T12:14:08.599Z,15.87
2022-11-05T12:19:21.542Z,16.1
2022-11-05T12:23:03.927Z,16.31
2022-11-05T12:29:19.052Z,16.66
2022-11-05T12:34:11.095Z,16.81
2022-11-05T12:39:07.669Z,16.86
2022-11-05T12:44:12.605Z,17.18
2022-11-05T12:46:40.637Z,17.32
2022-11-05T12:49:08.987Z,17.23
2022-11-05T12:51:37.431Z,17.52
2022-11-05T12:54:05.452Z,17.57
2022-11-05T12:57:56.142Z,17.54
2022-11-05T13:00:32.705Z,17.56
2022-11-05T13:03:58.655Z,17.57
2022-11-05T13:06:26.755Z,17.61
2022-11-05T13:08:55.062Z,17.6
2022-11-05T13:11:23.608Z,17.6
2022-11-05T13:15:13.891Z,17.54
2022-11-05T13:19:04.492Z,17.41
2022-11-05T13:21:32.892Z,17.36
2022-11-05T13:24:01.014Z,17.31
2022-11-05T13:26:29.291Z,17.23
2022-11-05T13:28:57.750Z,17.2
2022-11-05T13:31:25.843Z,17.18
2022-11-05T13:33:54.244Z,17.19
2022-11-05T13:36:30.759Z,17.2
2022-11-05T13:40:21.149Z,17.11
2022-11-05T13:46:32.016Z,16.99
2022-11-05T13:50:22.847Z,16.93
2022-11-05T13:52:50.666Z,16.87
2022-11-05T13:55:18.976Z,16.73
2022-11-05T13:57:47.461Z,16.7
2022-11-05T14:00:15.526Z,16.6
2022-11-05T14:02:43.837Z,16.56
2022-11-05T14:06:26.139Z,16.61
2022-11-05T14:10:08.736Z,16.74
2022-11-05T14:12:36.824Z,16.87
2022-11-05T14:21:16.106Z,17.27
2022-11-05T14:26:12.301Z,17.01
2022-11-05T14:31:09.020Z,16.81
2022-11-05T14:36:05.354Z,16.58
2022-11-05T14:42:16.095Z,16.19
2022-11-05T14:46:14.800Z,15.99
2022-11-05T14:50:05.546Z,15.93
2022-11-05T14:56:16.192Z,15.86
2022-11-05T15:01:12.644Z,15.84
2022-11-05T15:06:17.990Z,15.56
2022-11-05T15:10:10.447Z,15.68
2022-11-05T15:12:36.308Z,15.67
2022-11-05T15:15:04.442Z,15.66
2022-11-05T15:17:32.784Z,15.61
2022-11-05T15:20:00.962Z,15.65
2022-11-05T15:22:29.228Z,15.68
2022-11-05T15:26:11.777Z,15.65
2022-11-05T15:29:54.185Z,15.79
2022-11-05T15:32:22.689Z,15.73
2022-11-05T15:36:04.927Z,15.74
2022-11-05T15:41:09.653Z,15.57
2022-11-05T15:46:14.286Z,15.7
2022-11-05T15:50:07.541Z,15.71
2022-11-05T15:56:07.256Z,15.62
2022-11-05T16:01:03.894Z,15.57
2022-11-05T16:07:14.495Z,15.47
2022-11-05T16:09:50.967Z,15.45
2022-11-05T16:12:19.275Z,15.4
2022-11-05T16:16:01.549Z,15.4
2022-11-05T16:19:43.957Z,15.32
2022-11-05T16:22:12.429Z,15.29
2022-11-05T16:24:40.595Z,15.24
2022-11-05T16:27:08.739Z,15.2
2022-11-05T16:29:38.027Z,15.18
2022-11-05T16:32:05.268Z,15.18
2022-11-05T16:37:09.998Z,15.17
2022-11-05T16:42:06.560Z,15.1
2022-11-05T16:47:03.159Z,15.05
2022-11-05T16:54:27.949Z,15.06
2022-11-05T16:56:56.160Z,15.01
2022-11-05T16:59:24.574Z,14.99
2022-11-05T17:01:55.735Z,14.97
2022-11-05T17:05:35.125Z,15
2022-11-05T17:09:17.593Z,14.95
2022-11-05T17:11:46.371Z,14.95
2022-11-05T17:15:28.144Z,14.95
2022-11-05T17:19:18.809Z,14.92
2022-11-05T17:24:15.447Z,14.89
2022-11-05T17:29:11.897Z,14.83
2022-11-05T17:39:04.896Z,14.73
2022-11-05T17:45:15.522Z,14.7
2022-11-05T17:50:12.048Z,14.66
2022-11-05T17:55:16.944Z,14.65
2022-11-05T17:58:59.193Z,14.62
2022-11-05T18:01:27.713Z,14.59
2022-11-05T18:03:55.748Z,14.56
2022-11-05T18:06:24.145Z,14.55
2022-11-05T18:08:52.589Z,14.49
2022-11-05T18:11:20.500Z,14.47
2022-11-05T18:15:03.019Z,14.46
2022-11-05T18:21:05.468Z,14.43
2022-11-05T18:32:12.629Z,14.28
2022-11-05T18:38:31.701Z,14.19
2022-11-05T18:40:59.793Z,14.2
2022-11-05T18:44:42.127Z,14.16
2022-11-05T18:47:10.558Z,14.18
2022-11-05T18:49:46.894Z,14.21
2022-11-05T18:52:15.225Z,14.26
2022-11-05T18:54:43.397Z,14.25
2022-11-05T18:57:11.669Z,14.24
2022-11-05T18:59:40.100Z,14.22
2022-11-05T19:02:16.500Z,14.21
2022-11-05T19:07:12.911Z,14.21
2022-11-05T19:12:09.463Z,13.96
2022-11-05T19:19:34.270Z,14.19
2022-11-05T19:22:02.584Z,14.17
2022-11-05T19:24:30.770Z,14.13
2022-11-05T19:26:59.052Z,14.12
2022-11-05T19:29:27.626Z,14.09
2022-11-05T19:31:55.592Z,14.08
2022-11-05T19:34:23.912Z,14.09
2022-11-05T19:36:52.394Z,14.09
2022-11-05T19:39:20.353Z,14.08
2022-11-05T19:41:48.683Z,14.06
2022-11-05T19:48:07.498Z,13.99
2022-11-05T19:59:22.965Z,13.95
2022-11-05T20:04:19.436Z,13.91
2022-11-05T20:06:48.173Z,13.87
2022-11-05T20:10:30.813Z,13.81
2022-11-05T20:14:13.120Z,13.75
2022-11-05T20:17:54.880Z,13.76
2022-11-05T20:21:37.668Z,13.75
2022-11-05T20:25:19.726Z,13.72
2022-11-05T20:29:02.224Z,13.7
2022-11-05T20:33:59.183Z,13.68
2022-11-05T20:38:47.191Z,13.68
2022-11-05T20:41:16.024Z,13.68
2022-11-05T20:43:43.529Z,13.67
2022-11-05T20:46:12.024Z,13.67
2022-11-05T20:48:40.030Z,13.66
2022-11-05T20:51:08.468Z,13.63
2022-11-05T20:53:36.559Z,13.6
2022-11-05T20:56:07.585Z,13.62
2022-11-05T20:58:33.106Z,13.62
2022-11-05T21:06:06.343Z,13.61
2022-11-05T21:11:02.790Z,13.58
2022-11-05T21:18:35.632Z,13.59
2022-11-05T21:21:03.882Z,13.57
2022-11-05T21:23:32.160Z,13.58
2022-11-05T21:26:00.478Z,13.57
2022-11-05T21:28:28.668Z,13.57
2022-11-05T21:30:57.617Z,13.56
2022-11-05T21:33:25.209Z,13.54
2022-11-05T21:35:53.599Z,13.54
2022-11-05T21:38:21.773Z,13.55
2022-11-05T21:40:50.033Z,13.56
2022-11-05T21:47:08.905Z,13.56
2022-11-05T21:58:16.186Z,13.54
2022-11-05T22:00:44.373Z,13.53
2022-11-05T22:03:04.511Z,13.5
2022-11-05T22:06:55.195Z,13.37
2022-11-05T22:09:23.291Z,13.37
2022-11-05T22:11:51.555Z,13.37
2022-11-05T22:14:19.810Z,13.38
2022-11-05T22:16:48.193Z,13.38
2022-11-05T22:19:16.353Z,13.42
2022-11-05T22:22:58.864Z,13.43
2022-11-05T22:26:41.211Z,13.39
2022-11-05T22:29:09.414Z,13.14
2022-11-05T22:34:14.175Z,13.38
2022-11-05T22:39:10.679Z,13.36
2022-11-05T22:44:07.229Z,13.34
2022-11-05T22:49:03.740Z,13.31
2022-11-05T22:59:07.812Z,13.32
2022-11-05T23:02:31.251Z,13.34
2022-11-05T23:04:59.321Z,13.35
2022-11-05T23:07:28.389Z,13.31
2022-11-05T23:09:55.774Z,13.31
2022-11-05T23:12:24.176Z,13.33
2022-11-05T23:14:52.341Z,13.31
2022-11-05T23:17:20.721Z,13.26
2022-11-05T23:26:07.797Z,13.23
2022-11-05T23:37:24.484Z,13.15
2022-11-05T23:39:51.389Z,13.16
2022-11-05T23:42:19.907Z,13.15
2022-11-05T23:44:47.908Z,13.15
2022-11-05T23:47:16.403Z,13.11
2022-11-05T23:49:44.430Z,13.1
2022-11-05T23:52:12.830Z,13.08
2022-11-05T23:54:40.979Z,13.06
2022-11-05T23:57:09.272Z,12.84
2022-11-05T23:59:37.498Z,13.02
